LEMD/MAD METAR and TAF weather

Enter ICAO airport designator
Station Type Date Time Source
LEMD METAR 2019/05/26 01:30 UTC NOAA

LEMD 260130Z 07005KT 360V120 CAVOK 12/06 Q1020 NOSIG


Station Type Date Time Source
LEMD Decoded METAR 2019/05/26 01:30 UTC NOAA

Madrid / Barajas, Spain (LEMD) 40-27N 003-33W 582M
May 25, 2019 - 09:30 PM EDT / 2019.05.26 0130 UTC
Wind: from the ENE (070 degrees) at 6 MPH (5 KT) (direction variable):0
Visibility: greater than 7 mile(s):0
Temperature: 53 F (12 C)
Dew Point: 42 F (6 C)
Relative Humidity: 66%
Pressure (altimeter): 30.12 in. Hg (1020 hPa)
ob: LEMD 260130Z 07005KT 360V120 CAVOK 12/06 Q1020 NOSIG
cycle: 1

Station Type Date Time Source
LEMD TAF 2019/05/25 18:27 UTC NOAA

TAF LEMD 251700Z 2518/2624 04010KT CAVOK TX27/2615Z TN10/2605Z
BECMG 2613/2615 34011KT PROB30
TEMPO 2615/2619 34013G25KT
BECMG 2621/2623 VRB04KT

Example: see airport list